Time;durP1;ratioP1;P1;durP2;ratioP2;P2;SDS_P1;SDS_P2;PMS_P1;PMS_P2;Temp;Humidity;BMP_temperature;BMP_pressure;BME280_temperature;BME280_humidity;BME280_pressure;Samples;Min_cycle;Max_cycle;Signal;HPM_P1;HPM_P2
2023/08/08 00:01:44;;;;;;;2.63;1.60;;;14.60;99.90;;;;;;5015267;28;20030;-78
2023/08/08 00:04:10;;;;;;;2.70;1.67;;;14.70;99.90;;;;;;5000183;28;20037;-79
2023/08/08 00:06:36;;;;;;;2.88;1.58;;;14.60;99.90;;;;;;4987987;28;20036;-79
2023/08/08 00:09:03;;;;;;;2.63;1.27;;;14.60;99.90;;;;;;5012910;28;20022;-79
2023/08/08 00:11:29;;;;;;;1.05;0.95;;;14.60;99.90;;;;;;4990012;28;20026;-78
2023/08/08 00:13:55;;;;;;;4.20;1.65;;;14.60;99.90;;;;;;5000826;28;20083;-79
2023/08/08 00:16:21;;;;;;;4.20;1.35;;;14.60;99.90;;;;;;5017188;28;20045;-79
2023/08/08 00:18:46;;;;;;;3.17;1.73;;;14.50;99.90;;;;;;5002523;28;20080;-78
2023/08/08 00:21:12;;;;;;;1.45;1.08;;;14.60;99.90;;;;;;5018135;28;20026;-79
2023/08/08 00:23:37;;;;;;;3.03;1.33;;;14.50;99.90;;;;;;5017484;28;20488;-79
2023/08/08 00:26:05;;;;;;;2.20;1.55;;;14.50;99.90;;;;;;4989438;28;20702;-79
2023/08/08 00:28:30;;;;;;;1.90;1.70;;;14.50;99.90;;;;;;5005653;28;20033;-78
2023/08/08 00:30:56;;;;;;;4.45;1.27;;;14.60;99.90;;;;;;4995741;28;20041;-79
2023/08/08 00:33:21;;;;;;;4.28;2.50;;;14.50;99.90;;;;;;5015682;28;20038;-79
2023/08/08 00:35:47;;;;;;;4.70;1.67;;;14.40;99.90;;;;;;5014559;28;20429;-79
2023/08/08 00:38:12;;;;;;;5.95;1.77;;;14.40;99.90;;;;;;4999623;28;20060;-79
2023/08/08 00:40:38;;;;;;;1.38;1.17;;;14.40;99.90;;;;;;4990205;28;20312;-79
2023/08/08 00:43:04;;;;;;;2.85;1.42;;;14.40;99.90;;;;;;5016274;28;20026;-79
2023/08/08 00:45:29;;;;;;;4.43;1.67;;;14.30;99.90;;;;;;5017698;28;20124;-78
2023/08/08 00:47:55;;;;;;;2.17;1.20;;;14.30;99.90;;;;;;5015531;28;20052;-79
2023/08/08 00:50:20;;;;;;;0.77;0.60;;;14.30;99.90;;;;;;4987595;28;20042;-78
2023/08/08 00:52:46;;;;;;;4.97;1.67;;;14.30;99.90;;;;;;5017619;28;20521;-78
2023/08/08 00:55:12;;;;;;;3.75;1.52;;;14.30;99.90;;;;;;5012987;28;20052;-78
2023/08/08 00:57:38;;;;;;;2.17;1.40;;;14.30;99.90;;;;;;5016770;28;20124;-78
2023/08/08 01:00:06;;;;;;;2.53;1.40;;;14.30;99.90;;;;;;4995391;28;20120;-78
2023/08/08 01:02:32;;;;;;;3.15;1.15;;;14.30;99.90;;;;;;5019721;28;20053;-78
2023/08/08 01:04:57;;;;;;;2.88;1.00;;;14.30;99.90;;;;;;4996501;28;20038;-78
2023/08/08 01:07:23;;;;;;;2.53;1.27;;;14.20;99.90;;;;;;5018831;28;20474;-78
2023/08/08 01:10:01;;;;;;;2.25;1.58;;;14.20;99.90;;;;;;5021737;28;20370;-78
2023/08/08 01:12:26;;;;;;;2.08;1.40;;;14.10;99.90;;;;;;5002195;28;20029;-78
2023/08/08 01:14:52;;;;;;;3.42;1.55;;;14.20;99.90;;;;;;5016130;28;20034;-79
2023/08/08 01:17:18;;;;;;;1.98;1.40;;;14.20;99.90;;;;;;4986538;28;20045;-78
2023/08/08 01:19:43;;;;;;;6.68;1.95;;;14.20;99.90;;;;;;5013024;28;20026;-78
2023/08/08 01:22:14;;;;;;;2.92;1.40;;;14.10;99.90;;;;;;5003046;28;20030;-78
2023/08/08 01:24:39;;;;;;;1.40;1.02;;;14.10;99.90;;;;;;5017357;28;20117;-78
2023/08/08 01:27:06;;;;;;;2.03;1.02;;;14.10;99.90;;;;;;5000543;28;20133;-78
2023/08/08 01:29:32;;;;;;;5.13;1.30;;;14.20;99.90;;;;;;4993811;28;20038;-79
2023/08/08 01:31:58;;;;;;;3.55;1.67;;;14.20;99.90;;;;;;5013848;28;20041;-78
2023/08/08 01:34:23;;;;;;;4.75;1.27;;;14.10;99.90;;;;;;5002849;28;20045;-78
2023/08/08 01:37:32;;;;;;;1.88;1.48;;;14.10;99.90;;;;;;4998934;28;20042;-78
2023/08/08 01:39:59;;;;;;;2.25;1.50;;;14.00;99.90;;;;;;4943777;28;20526;-78
2023/08/08 01:42:25;;;;;;;2.53;1.50;;;14.20;99.90;;;;;;4929962;28;20143;-78
2023/08/08 01:44:50;;;;;;;2.17;1.90;;;14.00;99.90;;;;;;4963202;28;20040;-76
2023/08/08 01:47:16;;;;;;;4.38;1.42;;;14.00;99.90;;;;;;4997575;28;20807;-77
2023/08/08 01:49:47;;;;;;;2.08;1.40;;;13.90;99.90;;;;;;5001591;28;20057;-77
2023/08/08 01:52:12;;;;;;;8.13;1.52;;;13.80;99.90;;;;;;5001958;28;20065;-77
2023/08/08 01:54:38;;;;;;;5.05;2.05;;;13.90;99.90;;;;;;4998625;28;20072;-77
2023/08/08 01:57:04;;;;;;;3.47;1.33;;;13.90;99.90;;;;;;4997599;28;20045;-77
2023/08/08 01:59:29;;;;;;;1.83;1.55;;;13.90;99.90;;;;;;4987732;28;20033;-76
2023/08/08 02:01:55;;;;;;;3.05;1.63;;;13.90;99.90;;;;;;5015580;28;20044;-77
2023/08/08 02:04:21;;;;;;;3.47;1.15;;;13.90;99.90;;;;;;5017271;28;20025;-76
2023/08/08 02:06:46;;;;;;;3.22;1.73;;;13.90;99.90;;;;;;5002368;28;20113;-77
2023/08/08 02:09:14;;;;;;;3.75;2.20;;;13.90;99.90;;;;;;5000335;28;20068;-76
2023/08/08 02:11:40;;;;;;;2.80;1.70;;;13.90;99.90;;;;;;4990545;28;20072;-77
2023/08/08 02:14:05;;;;;;;1.42;0.93;;;13.90;99.90;;;;;;4998101;28;20057;-77
2023/08/08 02:16:32;;;;;;;2.80;1.38;;;13.80;99.90;;;;;;5018620;28;20420;-76
2023/08/08 02:18:58;;;;;;;4.40;1.98;;;13.90;99.90;;;;;;5017223;28;20509;-77
2023/08/08 02:21:23;;;;;;;2.20;1.35;;;13.80;99.90;;;;;;5012654;28;20117;-76
2023/08/08 02:23:49;;;;;;;4.72;1.98;;;13.90;99.90;;;;;;5001744;28;20175;-78
2023/08/08 02:26:14;;;;;;;2.75;1.23;;;13.80;99.90;;;;;;5014138;28;20034;-77
2023/08/08 02:28:41;;;;;;;6.72;1.70;;;13.70;99.90;;;;;;4995157;28;20498;-76
2023/08/08 02:31:06;;;;;;;1.00;0.85;;;13.70;99.90;;;;;;5015122;28;20084;-77
2023/08/08 02:33:32;;;;;;;5.13;1.23;;;13.70;99.90;;;;;;5007061;28;20493;-77
2023/08/08 02:35:57;;;;;;;5.40;1.90;;;13.80;99.90;;;;;;5016692;28;20038;-77
2023/08/08 02:38:23;;;;;;;2.17;1.42;;;13.70;99.90;;;;;;5016682;28;20042;-77
2023/08/08 02:40:48;;;;;;;4.80;2.13;;;13.60;99.90;;;;;;5018912;28;20083;-77
2023/08/08 02:43:14;;;;;;;2.45;1.58;;;13.60;99.90;;;;;;5021912;28;20080;-77
2023/08/08 02:45:39;;;;;;;3.25;1.30;;;13.70;99.90;;;;;;5034935;28;20037;-77
2023/08/08 02:48:05;;;;;;;2.65;1.92;;;13.60;99.90;;;;;;5018196;28;20144;-78
2023/08/08 02:50:31;;;;;;;2.35;1.63;;;13.70;99.90;;;;;;5004031;28;20046;-78
2023/08/08 02:52:56;;;;;;;2.88;1.38;;;13.70;99.90;;;;;;4984145;28;20116;-77
2023/08/08 02:55:22;;;;;;;3.40;2.00;;;13.70;99.90;;;;;;5018541;28;20025;-77
2023/08/08 02:57:47;;;;;;;4.90;1.20;;;13.60;99.90;;;;;;5005429;28;20041;-77
2023/08/08 03:00:13;;;;;;;3.67;2.08;;;13.70;99.90;;;;;;5017166;28;20026;-77
2023/08/08 03:02:39;;;;;;;4.00;1.70;;;13.70;99.90;;;;;;5019056;28;20025;-77
2023/08/08 03:05:05;;;;;;;6.30;1.58;;;13.70;99.90;;;;;;5019169;28;20136;-79
2023/08/08 03:07:31;;;;;;;6.93;2.25;;;13.70;99.90;;;;;;5021889;28;20117;-76
2023/08/08 03:09:56;;;;;;;3.33;1.35;;;13.70;99.90;;;;;;4986353;28;20553;-77
2023/08/08 03:12:22;;;;;;;9.32;2.45;;;13.70;99.90;;;;;;5003579;28;20441;-78
2023/08/08 03:14:47;;;;;;;2.97;1.60;;;13.70;99.90;;;;;;5018444;28;20454;-77
2023/08/08 03:17:13;;;;;;;2.90;1.67;;;13.80;99.90;;;;;;5018323;28;20508;-77
2023/08/08 03:19:38;;;;;;;2.63;1.85;;;13.70;99.90;;;;;;5016872;28;20034;-77
2023/08/08 03:22:04;;;;;;;3.30;1.63;;;13.70;99.90;;;;;;5022081;28;20396;-77
2023/08/08 03:24:29;;;;;;;5.03;1.42;;;13.70;99.90;;;;;;5006212;28;20458;-77
2023/08/08 03:26:55;;;;;;;3.58;1.50;;;13.60;99.90;;;;;;5003471;28;20033;-78
2023/08/08 03:29:21;;;;;;;3.80;2.45;;;13.60;99.90;;;;;;5004414;28;20022;-77
2023/08/08 03:31:46;;;;;;;7.90;1.60;;;13.60;99.90;;;;;;4982876;28;21699;-78
2023/08/08 03:34:12;;;;;;;1.88;1.40;;;13.50;99.90;;;;;;5017148;28;20504;-78
2023/08/08 03:36:37;;;;;;;6.82;2.13;;;13.50;99.90;;;;;;5019259;28;20568;-78
2023/08/08 03:39:03;;;;;;;6.22;2.38;;;13.50;99.90;;;;;;5000661;28;20589;-78
2023/08/08 03:41:29;;;;;;;6.03;3.13;;;13.50;99.90;;;;;;5003016;28;20386;-78
2023/08/08 03:43:56;;;;;;;3.58;1.95;;;13.40;99.90;;;;;;5004779;28;20508;-77
2023/08/08 03:46:21;;;;;;;2.25;1.95;;;13.50;99.90;;;;;;5015296;28;20088;-77
2023/08/08 03:48:47;;;;;;;5.22;2.47;;;13.60;99.90;;;;;;5016282;28;20034;-78
2023/08/08 03:51:13;;;;;;;3.17;2.03;;;13.50;99.90;;;;;;5016349;28;20617;-77
2023/08/08 03:53:38;;;;;;;5.97;2.30;;;13.50;99.90;;;;;;5019609;28;20040;-77
2023/08/08 03:56:04;;;;;;;3.15;2.00;;;13.40;99.90;;;;;;5017027;28;20117;-78
2023/08/08 03:58:29;;;;;;;4.00;1.77;;;13.40;99.90;;;;;;5004225;28;20037;-77
2023/08/08 04:00:56;;;;;;;7.22;1.70;;;13.40;99.90;;;;;;5016423;28;20509;-78
2023/08/08 04:03:22;;;;;;;3.95;2.10;;;13.40;99.90;;;;;;5001511;28;20562;-78
2023/08/08 04:05:47;;;;;;;3.92;1.98;;;13.50;99.90;;;;;;5015262;28;20033;-77
2023/08/08 04:08:14;;;;;;;7.05;2.05;;;13.50;99.90;;;;;;5014375;28;20038;-78
2023/08/08 04:10:39;;;;;;;7.38;2.10;;;13.40;99.90;;;;;;5015092;28;20503;-78
2023/08/08 04:13:05;;;;;;;5.40;2.22;;;13.40;99.90;;;;;;5015729;28;20033;-78
2023/08/08 04:15:30;;;;;;;6.03;1.77;;;13.40;99.90;;;;;;5021458;28;20109;-78
2023/08/08 04:17:56;;;;;;;4.38;1.90;;;13.30;99.90;;;;;;5019135;28;20073;-79
2023/08/08 04:20:22;;;;;;;6.70;2.03;;;13.20;99.90;;;;;;5003853;28;20061;-78
2023/08/08 04:22:47;;;;;;;2.72;1.67;;;13.20;99.90;;;;;;5016013;28;20061;-78
2023/08/08 04:25:13;;;;;;;3.17;2.10;;;13.30;99.90;;;;;;5014623;28;20486;-78
2023/08/08 04:27:39;;;;;;;9.00;2.35;;;13.30;99.90;;;;;;5017390;28;20492;-79
2023/08/08 04:30:05;;;;;;;6.25;1.90;;;13.30;99.90;;;;;;5002724;28;20611;-79
2023/08/08 04:32:30;;;;;;;7.97;2.30;;;13.20;99.90;;;;;;5001933;28;20026;-78
2023/08/08 04:34:56;;;;;;;8.02;2.40;;;13.30;99.90;;;;;;5015111;28;20582;-79
2023/08/08 04:37:21;;;;;;;5.88;2.20;;;13.20;99.90;;;;;;5017125;28;20517;-78
2023/08/08 04:39:47;;;;;;;7.25;2.33;;;13.30;99.90;;;;;;5001805;28;20034;-78
2023/08/08 04:42:12;;;;;;;5.45;2.53;;;13.30;99.90;;;;;;5015722;28;20045;-78
2023/08/08 04:44:38;;;;;;;4.25;2.45;;;13.30;99.90;;;;;;4989872;28;20120;-79
2023/08/08 04:47:04;;;;;;;7.15;2.25;;;13.30;99.90;;;;;;5015515;28;20036;-79
2023/08/08 04:49:30;;;;;;;5.90;2.00;;;13.30;99.90;;;;;;5016878;28;20127;-78
2023/08/08 04:51:55;;;;;;;5.18;2.38;;;13.30;99.90;;;;;;5016190;28;20459;-78
2023/08/08 04:54:21;;;;;;;8.35;3.95;;;13.40;99.90;;;;;;5001744;28;20029;-79
2023/08/08 04:56:46;;;;;;;4.82;2.50;;;13.30;99.90;;;;;;5002785;28;20049;-78
2023/08/08 04:59:12;;;;;;;7.25;2.60;;;13.40;99.90;;;;;;4989746;28;20036;-78
2023/08/08 05:01:37;;;;;;;8.70;3.00;;;13.40;99.90;;;;;;4989492;28;20120;-78
2023/08/08 05:04:03;;;;;;;6.75;3.75;;;13.50;99.90;;;;;;4989658;28;20034;-79
2023/08/08 05:06:28;;;;;;;9.20;3.70;;;13.50;99.90;;;;;;5018739;28;20061;-79
2023/08/08 05:08:56;;;;;;;6.05;3.10;;;13.50;99.90;;;;;;5000417;28;20048;-77
2023/08/08 05:11:22;;;;;;;5.55;3.33;;;13.50;99.90;;;;;;5017172;28;20030;-78
2023/08/08 05:13:47;;;;;;;5.45;2.50;;;13.50;99.90;;;;;;5017619;28;20156;-78
2023/08/08 05:16:13;;;;;;;12.85;3.42;;;13.50;99.90;;;;;;5016959;28;20038;-77
2023/08/08 05:18:38;;;;;;;6.38;3.83;;;13.60;99.90;;;;;;5016830;28;20034;-78
2023/08/08 05:21:04;;;;;;;10.15;3.90;;;13.60;99.90;;;;;;5001800;28;20042;-78
2023/08/08 05:23:30;;;;;;;9.13;4.38;;;13.60;99.90;;;;;;5003653;28;20068;-77
2023/08/08 05:25:55;;;;;;;7.95;3.90;;;13.60;99.90;;;;;;5014229;28;20111;-78
2023/08/08 05:28:21;;;;;;;10.25;4.00;;;13.60;99.90;;;;;;5015901;28;20042;-77
2023/08/08 05:30:46;;;;;;;7.53;3.92;;;13.60;99.90;;;;;;4997192;28;20037;-77
2023/08/08 05:33:12;;;;;;;10.30;5.20;;;13.60;99.90;;;;;;5015084;28;20034;-78
2023/08/08 05:35:37;;;;;;;8.75;4.30;;;13.70;99.90;;;;;;5015129;28;20065;-78
2023/08/08 05:38:05;;;;;;;13.00;5.43;;;13.70;99.90;;;;;;5015989;28;20192;-77
2023/08/08 05:40:30;;;;;;;7.05;3.33;;;13.70;99.90;;;;;;5005889;28;20044;-79
2023/08/08 05:42:56;;;;;;;9.02;4.00;;;13.70;99.90;;;;;;5018409;28;20042;-79
2023/08/08 05:45:21;;;;;;;9.85;5.30;;;13.70;99.90;;;;;;5019202;28;20030;-78
2023/08/08 05:47:47;;;;;;;9.23;5.45;;;13.70;99.90;;;;;;5001382;28;20701;-77
2023/08/08 05:50:13;;;;;;;12.50;5.75;;;13.80;99.90;;;;;;5015894;28;20286;-77
2023/08/08 05:52:38;;;;;;;12.82;6.03;;;13.80;99.90;;;;;;5013401;28;20116;-77
2023/08/08 05:55:04;;;;;;;7.93;5.07;;;13.80;99.90;;;;;;5016625;28;20493;-77
2023/08/08 05:57:30;;;;;;;9.23;6.22;;;13.90;99.90;;;;;;5014681;28;20041;-77
2023/08/08 05:59:55;;;;;;;19.08;6.65;;;13.90;99.90;;;;;;5017407;28;20045;-78
2023/08/08 06:02:21;;;;;;;14.68;5.90;;;13.90;99.90;;;;;;4988564;28;20025;-78
2023/08/08 06:04:47;;;;;;;11.73;4.20;;;14.00;99.90;;;;;;5015805;28;20026;-78
2023/08/08 06:07:12;;;;;;;5.88;4.10;;;14.00;99.90;;;;;;5014303;28;20084;-77
2023/08/08 06:09:38;;;;;;;5.97;3.67;;;14.00;99.90;;;;;;5001987;28;20600;-77
2023/08/08 06:12:04;;;;;;;9.23;5.25;;;14.00;99.90;;;;;;5010426;28;20033;-79
2023/08/08 06:14:30;;;;;;;13.18;6.75;;;14.00;99.90;;;;;;5010886;28;20037;-78
2023/08/08 06:16:56;;;;;;;14.10;5.70;;;14.00;99.90;;;;;;5014112;28;20037;-77
2023/08/08 06:19:21;;;;;;;12.57;6.60;;;14.10;99.90;;;;;;4984469;28;20036;-77
2023/08/08 06:21:47;;;;;;;7.97;5.47;;;14.10;99.90;;;;;;5001439;28;20072;-77
2023/08/08 06:24:12;;;;;;;13.45;6.97;;;14.10;99.90;;;;;;5015813;28;20444;-77
2023/08/08 06:26:38;;;;;;;13.45;6.05;;;14.20;99.90;;;;;;5018262;28;20488;-78
2023/08/08 06:29:03;;;;;;;11.35;5.35;;;14.30;99.90;;;;;;5016626;28;20081;-77
2023/08/08 06:31:29;;;;;;;11.48;5.88;;;14.40;99.90;;;;;;4997149;28;20448;-78
2023/08/08 06:33:55;;;;;;;17.92;6.25;;;14.50;99.90;;;;;;4994975;28;20132;-77
2023/08/08 06:36:21;;;;;;;10.75;5.40;;;14.50;99.90;;;;;;5013261;28;20091;-78
2023/08/08 06:38:46;;;;;;;9.02;5.78;;;14.50;99.90;;;;;;5015214;28;20041;-78
2023/08/08 06:41:12;;;;;;;9.23;4.30;;;14.50;99.90;;;;;;5015976;28;20120;-77
2023/08/08 06:43:39;;;;;;;14.63;6.38;;;14.60;99.90;;;;;;5019014;28;20452;-77
2023/08/08 06:46:05;;;;;;;10.30;7.10;;;14.60;99.90;;;;;;5016059;28;20030;-78
2023/08/08 06:48:30;;;;;;;13.27;4.60;;;14.60;99.90;;;;;;5002194;28;20500;-76
2023/08/08 06:50:56;;;;;;;16.13;6.35;;;14.70;99.90;;;;;;5012112;28;20041;-77
2023/08/08 06:53:21;;;;;;;6.75;3.80;;;14.80;99.90;;;;;;5001786;28;20030;-77
2023/08/08 06:55:47;;;;;;;22.05;8.23;;;14.80;99.90;;;;;;5003834;28;20061;-77
2023/08/08 06:58:12;;;;;;;16.00;7.63;;;14.90;99.90;;;;;;5018795;28;20041;-77
2023/08/08 07:00:38;;;;;;;16.05;7.93;;;15.00;99.90;;;;;;5005501;28;20494;-77
2023/08/08 07:03:04;;;;;;;14.27;7.28;;;15.10;99.90;;;;;;4999450;28;20034;-77
2023/08/08 07:05:29;;;;;;;11.82;4.65;;;15.20;99.90;;;;;;5011077;28;20093;-76
2023/08/08 07:07:55;;;;;;;19.45;9.23;;;15.30;99.90;;;;;;5024051;28;20053;-77
2023/08/08 07:10:20;;;;;;;15.68;7.50;;;15.40;99.90;;;;;;5021659;28;20562;-77
2023/08/08 07:12:46;;;;;;;17.60;8.70;;;15.40;99.90;;;;;;5021644;28;20038;-76
2023/08/08 07:15:12;;;;;;;10.77;5.75;;;15.40;99.90;;;;;;5014834;28;20079;-77
2023/08/08 07:17:38;;;;;;;19.65;8.93;;;15.50;99.90;;;;;;5022238;28;20056;-76
2023/08/08 07:20:05;;;;;;;9.65;4.53;;;15.60;99.90;;;;;;5018771;28;20037;-76
2023/08/08 07:22:32;;;;;;;8.48;6.18;;;15.70;99.90;;;;;;5017261;28;20034;-77
2023/08/08 07:24:57;;;;;;;16.55;8.07;;;15.80;99.90;;;;;;5015846;28;20037;-76
2023/08/08 07:27:23;;;;;;;13.60;7.15;;;16.00;99.90;;;;;;5008340;28;20033;-77
2023/08/08 07:29:50;;;;;;;14.05;7.13;;;16.20;99.90;;;;;;5017470;28;20037;-77
2023/08/08 07:32:16;;;;;;;13.05;7.78;;;16.50;99.90;;;;;;5005799;28;20044;-77
2023/08/08 07:34:41;;;;;;;7.95;4.72;;;16.60;99.90;;;;;;4991407;28;20018;-77
2023/08/08 07:37:07;;;;;;;15.05;8.15;;;16.80;99.90;;;;;;5004744;28;20071;-77
2023/08/08 07:39:33;;;;;;;14.25;7.82;;;16.90;99.90;;;;;;5021546;28;20213;-77
2023/08/08 07:41:58;;;;;;;12.00;5.00;;;17.10;99.90;;;;;;5023510;28;20044;-77
2023/08/08 07:44:24;;;;;;;5.97;4.85;;;17.10;99.90;;;;;;5021268;28;20088;-77
2023/08/08 07:46:49;;;;;;;11.55;6.50;;;17.30;99.90;;;;;;4987872;28;20045;-77
2023/08/08 07:49:15;;;;;;;11.07;6.75;;;17.40;99.90;;;;;;5005685;28;20039;-77
2023/08/08 07:51:46;;;;;;;9.43;6.47;;;17.60;99.90;;;;;;5018120;28;20454;-78
2023/08/08 07:54:12;;;;;;;10.18;5.05;;;17.40;99.90;;;;;;5003830;28;20083;-78
2023/08/08 07:56:38;;;;;;;10.57;6.22;;;17.80;99.90;;;;;;5014045;28;20033;-77
2023/08/08 07:59:03;;;;;;;7.50;4.43;;;18.00;99.90;;;;;;5017748;28;20034;-77
2023/08/08 08:01:29;;;;;;;13.77;6.30;;;18.10;99.90;;;;;;5017168;28;20064;-77
2023/08/08 08:03:55;;;;;;;11.57;6.38;;;18.10;99.90;;;;;;4988950;28;20041;-76
2023/08/08 08:06:20;;;;;;;8.35;4.95;;;18.20;99.90;;;;;;5015092;28;20030;-77
2023/08/08 08:08:46;;;;;;;6.07;3.85;;;18.30;99.90;;;;;;5021502;28;20029;-77
2023/08/08 08:11:13;;;;;;;10.05;5.57;;;18.40;99.90;;;;;;5018714;28;20026;-77
2023/08/08 08:13:39;;;;;;;10.88;4.45;;;18.40;99.90;;;;;;5019955;28;20030;-77
2023/08/08 08:16:05;;;;;;;11.43;4.72;;;18.50;99.90;;;;;;5018818;28;20048;-78
2023/08/08 08:18:30;;;;;;;11.55;4.97;;;18.40;99.90;;;;;;5022787;28;20033;-77
2023/08/08 08:20:56;;;;;;;4.05;3.58;;;18.40;99.90;;;;;;5020677;28;20559;-77
2023/08/08 08:23:22;;;;;;;10.38;4.43;;;18.80;99.90;;;;;;5018063;28;20089;-77
2023/08/08 08:25:48;;;;;;;11.65;4.35;;;18.80;99.90;;;;;;5023983;28;20045;-77
2023/08/08 08:28:20;;;;;;;8.10;3.88;;;18.70;99.90;;;;;;5022570;28;20513;-77
2023/08/08 08:30:45;;;;;;;7.10;3.92;;;18.90;99.90;;;;;;5019667;28;20036;-77
2023/08/08 08:33:11;;;;;;;9.45;3.15;;;19.00;99.90;;;;;;5014771;28;20038;-77
2023/08/08 08:35:37;;;;;;;3.88;2.78;;;19.10;99.90;;;;;;5013276;28;20435;-77
2023/08/08 08:38:03;;;;;;;6.85;2.95;;;19.30;99.90;;;;;;4998492;28;20042;-77
2023/08/08 08:40:29;;;;;;;5.35;2.25;;;19.50;99.90;;;;;;5018340;28;20525;-77
2023/08/08 08:42:55;;;;;;;2.92;1.58;;;19.60;99.90;;;;;;5014148;28;20036;-77
2023/08/08 08:45:21;;;;;;;4.78;2.50;;;19.70;99.90;;;;;;5014164;28;20029;-77
2023/08/08 08:47:48;;;;;;;7.82;2.97;;;19.80;99.90;;;;;;4987526;28;20049;-77
2023/08/08 08:50:15;;;;;;;7.72;2.65;;;20.00;99.90;;;;;;5017793;28;20109;-77
2023/08/08 08:52:40;;;;;;;7.00;2.78;;;20.00;99.90;;;;;;5002116;28;20138;-77
2023/08/08 08:55:06;;;;;;;5.72;2.75;;;20.00;99.90;;;;;;5014383;28;20477;-78
2023/08/08 08:57:32;;;;;;;2.80;1.42;;;20.20;99.90;;;;;;5002520;28;20034;-77
2023/08/08 08:59:58;;;;;;;6.20;2.55;;;20.30;99.90;;;;;;5013552;28;20091;-77
2023/08/08 09:02:25;;;;;;;2.75;1.65;;;20.40;99.90;;;;;;4992550;28;20247;-77
2023/08/08 09:04:50;;;;;;;9.52;2.45;;;20.50;99.90;;;;;;5012315;28;20036;-77
2023/08/08 09:07:17;;;;;;;7.53;2.70;;;20.50;99.90;;;;;;5015937;28;20033;-76
2023/08/08 09:09:43;;;;;;;7.05;2.65;;;20.40;99.90;;;;;;5001025;28;20486;-77
2023/08/08 09:12:08;;;;;;;3.35;1.90;;;20.40;99.90;;;;;;4999843;28;20029;-76
2023/08/08 09:14:34;;;;;;;6.10;2.75;;;20.80;99.90;;;;;;5019014;28;20112;-77
2023/08/08 09:17:00;;;;;;;5.95;2.33;;;20.70;99.90;;;;;;5001900;28;20052;-77
2023/08/08 09:19:25;;;;;;;6.95;2.63;;;20.80;99.90;;;;;;5013635;28;20156;-77
2023/08/08 09:21:51;;;;;;;6.00;2.38;;;21.00;99.90;;;;;;5019255;28;20058;-77
2023/08/08 09:24:18;;;;;;;7.32;2.70;;;21.30;99.90;;;;;;5012993;28;20030;-77
2023/08/08 09:26:44;;;;;;;3.55;1.95;;;21.40;99.90;;;;;;4998442;28;20033;-77
2023/08/08 09:29:12;;;;;;;5.38;2.15;;;21.50;99.90;;;;;;5015007;28;20031;-76
2023/08/08 09:31:37;;;;;;;5.07;2.78;;;21.50;99.90;;;;;;4994612;28;20057;-77
2023/08/08 09:34:03;;;;;;;5.35;2.58;;;21.70;99.90;;;;;;5015115;28;20107;-77
2023/08/08 09:36:29;;;;;;;7.80;2.53;;;21.70;99.90;;;;;;5015595;28;20306;-77
2023/08/08 09:38:55;;;;;;;6.47;2.38;;;21.60;99.90;;;;;;4996008;28;20045;-77
2023/08/08 09:41:23;;;;;;;5.95;2.13;;;21.60;99.90;;;;;;5012314;28;20100;-76
2023/08/08 09:43:50;;;;;;;5.88;2.13;;;21.50;99.90;;;;;;5015962;28;20042;-77
2023/08/08 09:46:16;;;;;;;5.90;1.58;;;21.50;99.90;;;;;;5011685;28;20022;-77
2023/08/08 09:48:42;;;;;;;4.22;1.60;;;21.50;99.90;;;;;;5016270;28;20079;-76
2023/08/08 09:51:08;;;;;;;3.35;1.17;;;21.40;99.90;;;;;;5013666;28;20030;-77
2023/08/08 09:53:34;;;;;;;6.30;2.42;;;21.30;99.90;;;;;;5006866;28;20052;-77
2023/08/08 09:56:03;;;;;;;7.40;2.30;;;21.20;99.90;;;;;;5014100;28;20029;-77
2023/08/08 09:58:29;;;;;;;6.57;3.15;;;21.30;99.90;;;;;;5016992;28;20440;-77
2023/08/08 10:00:55;;;;;;;4.40;2.15;;;21.20;99.90;;;;;;5015147;28;20041;-77
2023/08/08 10:03:21;;;;;;;9.45;2.22;;;21.30;99.90;;;;;;5010890;28;20119;-76
2023/08/08 10:05:47;;;;;;;4.25;2.00;;;21.20;99.90;;;;;;5003852;28;20034;-77
2023/08/08 10:08:15;;;;;;;6.32;2.10;;;21.10;99.90;;;;;;5011268;28;20135;-77
2023/08/08 10:10:40;;;;;;;3.38;1.70;;;21.00;99.90;;;;;;5002893;28;20036;-77
2023/08/08 10:13:06;;;;;;;4.47;2.20;;;21.10;99.90;;;;;;5014440;28;20033;-77
2023/08/08 10:15:32;;;;;;;5.50;2.20;;;21.10;99.90;;;;;;4999520;28;20084;-76
2023/08/08 10:18:00;;;;;;;9.93;1.95;;;21.00;99.90;;;;;;5017659;28;20092;-76
2023/08/08 10:20:25;;;;;;;9.23;1.85;;;21.20;99.90;;;;;;5006782;28;20570;-76
2023/08/08 10:22:52;;;;;;;5.72;2.42;;;21.40;99.90;;;;;;5012674;28;20034;-76
2023/08/08 10:25:27;;;;;;;3.42;2.03;;;21.50;99.90;;;;;;5000467;28;20022;-77
2023/08/08 10:28:13;;;;;;;10.88;3.15;;;21.40;99.90;;;;;;4990666;28;20022;-77
2023/08/08 10:30:44;;;;;;;6.32;2.10;;;21.40;99.90;;;;;;4994812;28;20528;-76
2023/08/08 10:33:21;;;;;;;5.22;1.48;;;21.50;99.90;;;;;;5014432;28;20038;-77
2023/08/08 10:36:07;;;;;;;1.70;1.02;;;21.70;99.90;;;;;;5011759;28;20636;-77
2023/08/08 10:38:46;;;;;;;7.85;2.70;;;21.90;99.90;;;;;;5015585;28;20405;-77
2023/08/08 10:41:19;;;;;;;4.63;1.83;;;21.90;99.90;;;;;;4984638;28;20033;-76
2023/08/08 10:43:56;;;;;;;5.00;2.22;;;21.90;99.90;;;;;;4985111;28;20061;-76
2023/08/08 10:46:29;;;;;;;2.88;2.00;;;21.80;99.90;;;;;;5016898;28;20033;-77
2023/08/08 10:49:02;;;;;;;4.28;2.08;;;21.60;99.90;;;;;;5018813;28;20118;-78
2023/08/08 10:51:37;;;;;;;5.13;2.00;;;21.50;99.90;;;;;;5016960;28;20489;-78
2023/08/08 10:54:27;;;;;;;9.82;1.60;;;21.50;99.90;;;;;;5016302;28;20038;-77
2023/08/08 10:56:53;;;;;;;4.97;2.13;;;21.20;99.90;;;;;;5002675;28;20111;-77
2023/08/08 10:59:27;;;;;;;6.53;2.53;;;21.20;99.90;;;;;;5014131;28;20038;-77
2023/08/08 11:01:52;;;;;;;4.28;1.75;;;21.30;99.90;;;;;;5018576;28;20107;-78
2023/08/08 11:04:26;;;;;;;3.55;1.25;;;21.30;99.90;;;;;;5006258;28;20460;-77
2023/08/08 11:06:53;;;;;;;2.10;0.80;;;21.60;99.90;;;;;;5017520;28;20037;-77
2023/08/08 11:09:19;;;;;;;5.53;1.70;;;21.60;99.90;;;;;;4982075;28;20048;-77
2023/08/08 11:11:45;;;;;;;3.63;1.23;;;21.40;99.90;;;;;;5014009;28;20029;-77
2023/08/08 11:14:14;;;;;;;2.25;1.33;;;21.70;99.90;;;;;;5018564;28;20029;-77
2023/08/08 11:16:41;;;;;;;4.45;2.33;;;21.80;99.90;;;;;;5018687;28;20547;-77
2023/08/08 11:19:06;;;;;;;3.35;1.65;;;22.00;99.90;;;;;;4998714;28;20049;-77
2023/08/08 11:21:36;;;;;;;5.10;2.17;;;21.80;99.90;;;;;;5006137;28;20057;-78
2023/08/08 11:24:03;;;;;;;3.38;2.10;;;22.00;99.90;;;;;;5003996;28;20095;-78
2023/08/08 11:26:31;;;;;;;5.85;1.85;;;22.10;99.90;;;;;;5020845;28;20049;-77
2023/08/08 11:29:00;;;;;;;7.30;1.60;;;21.80;99.90;;;;;;5014105;28;20520;-77
2023/08/08 11:31:26;;;;;;;11.57;2.38;;;21.50;99.90;;;;;;5029938;28;20021;-77
2023/08/08 11:33:52;;;;;;;3.92;1.58;;;21.60;99.90;;;;;;5025670;28;20026;-77
2023/08/08 11:36:18;;;;;;;5.07;1.75;;;21.30;99.90;;;;;;5021216;28;20029;-77
2023/08/08 11:38:45;;;;;;;5.70;1.92;;;21.20;99.90;;;;;;5028495;28;20941;-78
2023/08/08 11:41:13;;;;;;;7.32;1.90;;;21.10;99.90;;;;;;5028118;28;20038;-78
2023/08/08 11:43:39;;;;;;;2.97;1.48;;;21.10;99.90;;;;;;5022908;28;20104;-77
2023/08/08 11:46:14;;;;;;;3.13;1.73;;;21.10;99.90;;;;;;5031709;28;20121;-79
2023/08/08 11:48:40;;;;;;;7.03;2.05;;;21.50;99.90;;;;;;5024166;28;20045;-78
2023/08/08 11:51:06;;;;;;;7.93;2.47;;;21.70;99.90;;;;;;5013014;28;20128;-77
2023/08/08 11:53:33;;;;;;;3.10;1.95;;;21.80;99.90;;;;;;5002759;28;20102;-77
2023/08/08 11:55:59;;;;;;;5.00;2.05;;;21.70;99.90;;;;;;5028726;28;20045;-77
2023/08/08 11:58:25;;;;;;;6.82;1.95;;;22.10;99.90;;;;;;5006179;28;20046;-77
2023/08/08 12:00:51;;;;;;;6.97;2.25;;;22.30;99.90;;;;;;5030458;28;20036;-76
2023/08/08 12:03:18;;;;;;;8.00;1.75;;;22.50;99.90;;;;;;5009230;28;20121;-78
2023/08/08 12:05:45;;;;;;;7.18;1.83;;;22.30;99.90;;;;;;5010398;28;20512;-79
2023/08/08 12:08:11;;;;;;;4.90;1.98;;;22.60;99.90;;;;;;5002263;28;20031;-77
2023/08/08 12:10:36;;;;;;;5.00;2.42;;;22.90;99.90;;;;;;5024158;28;20467;-77
2023/08/08 12:13:02;;;;;;;6.47;1.90;;;23.20;99.90;;;;;;4999570;28;20060;-78
2023/08/08 12:15:32;;;;;;;5.97;1.95;;;23.10;99.90;;;;;;5020464;28;20029;-78
2023/08/08 12:17:59;;;;;;;8.27;2.08;;;23.20;99.90;;;;;;5002489;28;20421;-77
2023/08/08 12:20:27;;;;;;;5.95;1.88;;;23.20;99.90;;;;;;5010375;28;20034;-77
2023/08/08 12:22:52;;;;;;;5.95;2.03;;;23.20;99.90;;;;;;5025943;28;20040;-77
2023/08/08 12:25:18;;;;;;;6.57;2.33;;;23.10;99.60;;;;;;5010030;28;20041;-78
2023/08/08 12:27:44;;;;;;;5.47;1.95;;;23.20;99.90;;;;;;5004552;28;20121;-76
2023/08/08 12:30:09;;;;;;;4.25;1.88;;;23.40;99.90;;;;;;5000489;28;20477;-78
2023/08/08 12:32:35;;;;;;;6.50;2.05;;;23.30;98.70;;;;;;5019731;28;20040;-78
2023/08/08 12:35:01;;;;;;;2.83;2.00;;;23.60;99.40;;;;;;5008605;28;20041;-78
2023/08/08 12:37:26;;;;;;;6.22;1.80;;;23.70;98.00;;;;;;5022277;28;20042;-78
2023/08/08 12:39:52;;;;;;;5.47;1.77;;;23.70;98.70;;;;;;5006884;28;20114;-77
2023/08/08 12:42:17;;;;;;;4.53;1.63;;;23.90;99.10;;;;;;5004014;28;20025;-76